createdAt,value
2018-12-27T00:01:58.664Z,102074.41
2018-12-27T00:04:27.984Z,102071.87
2018-12-27T00:06:58.563Z,102071.87
2018-12-27T00:09:28.669Z,102063.64
2018-12-27T00:11:58.265Z,102063.64
2018-12-27T00:14:29.960Z,102072.27
2018-12-27T00:17:00.973Z,102065.83
2018-12-27T00:19:30.412Z,102065.83
2018-12-27T00:22:00.185Z,102064.13
2018-12-27T00:24:30.157Z,102061.18
2018-12-27T00:26:59.723Z,102055.52
2018-12-27T00:29:29.265Z,102055.59
2018-12-27T00:31:59.226Z,102050.00
2018-12-27T00:34:29.285Z,102041.41
2018-12-27T00:36:59.034Z,102037.07
2018-12-27T00:39:28.761Z,102034.95
2018-12-27T00:42:02.759Z,102030.13
2018-12-27T00:44:32.759Z,102030.13
2018-12-27T00:47:02.756Z,102032.19
2018-12-27T00:49:32.627Z,102032.19
2018-12-27T00:52:16.244Z,102033.89
2018-12-27T00:54:46.099Z,102030.47
2018-12-27T00:57:16.169Z,102030.47
2018-12-27T00:59:48.274Z,102028.22
2018-12-27T01:02:18.223Z,102029.47
2018-12-27T01:04:47.897Z,102036.95
2018-12-27T01:07:24.271Z,102036.95
2018-12-27T01:09:53.957Z,102036.08
2018-12-27T01:12:26.801Z,102030.55
2018-12-27T01:15:10.977Z,102021.95
2018-12-27T01:17:42.458Z,102009.95
2018-12-27T01:20:12.290Z,102009.95
2018-12-27T01:22:45.095Z,101995.25
2018-12-27T01:25:14.854Z,102005.66
2018-12-27T01:27:44.484Z,102005.66
2018-12-27T01:30:14.461Z,102014.66
2018-12-27T01:32:44.427Z,102014.66
2018-12-27T01:35:14.359Z,102013.83
2018-12-27T01:37:44.443Z,102009.06
2018-12-27T01:40:17.676Z,102001.73
2018-12-27T01:42:47.535Z,102004.30
2018-12-27T01:45:20.962Z,102003.06
2018-12-27T01:47:50.865Z,102003.52
2018-12-27T01:50:23.918Z,102003.52
2018-12-27T01:52:54.175Z,101995.36
2018-12-27T01:55:26.461Z,101995.36
2018-12-27T01:57:56.534Z,101990.13
2018-12-27T02:00:27.191Z,101999.55
2018-12-27T02:02:57.112Z,102000.88
2018-12-27T02:05:26.962Z,102000.02
2018-12-27T02:07:57.287Z,102000.02
2018-12-27T02:10:33.910Z,101997.88
2018-12-27T02:13:03.734Z,101997.88
2018-12-27T02:15:33.637Z,102000.58
2018-12-27T02:18:08.298Z,102002.30
2018-12-27T02:20:37.910Z,102001.00
2018-12-27T02:23:07.758Z,102000.95
2018-12-27T02:25:37.625Z,102003.13
2018-12-27T02:28:07.733Z,101997.78
2018-12-27T02:30:43.611Z,101997.78
2018-12-27T02:33:08.845Z,102005.61
2018-12-27T02:35:38.575Z,102000.52
2018-12-27T02:38:10.300Z,102004.42
2018-12-27T02:40:40.243Z,101998.42
2018-12-27T02:43:10.283Z,101991.57
2018-12-27T02:45:40.066Z,101991.57
2018-12-27T02:48:09.868Z,101995.93
2018-12-27T02:50:40.027Z,101985.52
2018-12-27T02:53:12.773Z,101983.81
2018-12-27T02:55:42.539Z,101977.75
2018-12-27T02:58:18.572Z,101988.62
2018-12-27T03:00:44.009Z,101980.80
2018-12-27T03:03:13.844Z,101981.86
2018-12-27T03:05:43.947Z,101971.09
2018-12-27T03:08:13.946Z,101971.09
2018-12-27T03:10:43.580Z,101969.50
2018-12-27T03:13:22.276Z,101955.17
2018-12-27T03:15:52.040Z,101963.48
2018-12-27T03:18:25.005Z,101963.48
2018-12-27T03:20:54.952Z,101944.92
2018-12-27T03:23:25.087Z,101942.39
2018-12-27T03:25:54.862Z,101929.86
2018-12-27T03:28:24.986Z,101929.86
2018-12-27T03:30:54.669Z,101930.28
2018-12-27T03:33:24.411Z,101931.16
2018-12-27T03:35:54.200Z,101920.34
2018-12-27T03:38:24.072Z,101920.76
2018-12-27T03:40:54.045Z,101911.69
2018-12-27T03:43:27.244Z,101911.69
2018-12-27T03:45:57.217Z,101899.13
2018-12-27T03:48:27.134Z,101904.78
2018-12-27T03:50:57.147Z,101912.17
2018-12-27T03:53:32.875Z,101915.63
2018-12-27T03:55:58.368Z,101914.79
2018-12-27T04:01:13.080Z,101898.76
2018-12-27T04:03:40.829Z,101914.34
2018-12-27T04:06:22.253Z,101914.34
2018-12-27T04:08:52.222Z,101900.50
2018-12-27T04:11:22.219Z,101899.21
2018-12-27T04:14:03.862Z,101889.69
2018-12-27T04:16:30.920Z,101888.40
2018-12-27T04:19:00.534Z,101886.20
2018-12-27T04:21:30.203Z,101888.30
2018-12-27T04:24:00.184Z,101888.30
2018-12-27T04:26:29.947Z,101890.45
2018-12-27T04:28:59.612Z,101889.56
2018-12-27T04:31:29.976Z,101879.17
2018-12-27T04:34:09.226Z,101885.61
2018-12-27T04:36:31.443Z,101882.60
2018-12-27T04:39:00.893Z,101872.70
2018-12-27T04:41:31.129Z,101875.74
2018-12-27T04:44:04.808Z,101877.91
2018-12-27T04:46:34.443Z,101860.11
2018-12-27T04:49:04.236Z,101871.41
2018-12-27T04:51:37.091Z,101871.41
2018-12-27T04:54:13.578Z,101870.14
2018-12-27T04:56:46.217Z,101870.14
2018-12-27T04:59:15.804Z,101884.87
2018-12-27T05:01:48.885Z,101884.87
2018-12-27T05:04:18.824Z,101881.86
2018-12-27T05:06:51.713Z,101888.39
2018-12-27T05:09:21.283Z,101888.39
2018-12-27T05:11:51.216Z,101885.86
2018-12-27T05:14:20.765Z,101898.78
2018-12-27T05:16:52.095Z,101898.78
2018-12-27T05:19:21.937Z,101888.45
2018-12-27T05:21:51.752Z,101878.08
2018-12-27T05:24:24.250Z,101878.08
2018-12-27T05:26:54.229Z,101901.83
2018-12-27T05:29:23.913Z,101901.83
2018-12-27T05:31:53.590Z,101903.12
2018-12-27T05:34:26.309Z,101900.93
2018-12-27T05:36:55.035Z,101902.25
2018-12-27T05:39:25.969Z,101901.38
2018-12-27T05:41:55.639Z,101898.34
2018-12-27T05:44:25.019Z,101900.48
2018-12-27T05:46:54.743Z,101892.25
2018-12-27T05:49:24.102Z,101883.97
2018-12-27T05:52:01.016Z,101883.97
2018-12-27T05:54:30.331Z,101898.67
2018-12-27T05:56:59.613Z,101892.22
2018-12-27T05:59:36.729Z,101892.22
2018-12-27T06:02:08.945Z,101897.86
2018-12-27T06:04:38.242Z,101897.86
2018-12-27T06:07:07.943Z,101894.39
2018-12-27T06:09:37.563Z,101890.05
2018-12-27T06:12:11.603Z,101879.72
2018-12-27T06:14:37.936Z,101883.12
2018-12-27T06:17:08.012Z,101887.48
2018-12-27T06:19:37.271Z,101881.47
2018-12-27T06:22:09.410Z,101884.93
2018-12-27T06:24:46.155Z,101884.93
2018-12-27T06:27:15.507Z,101882.34
2018-12-27T06:29:44.840Z,101874.92
2018-12-27T06:32:17.634Z,101874.92
2018-12-27T06:34:46.993Z,101885.80
2018-12-27T06:37:16.284Z,101884.09
2018-12-27T06:39:45.645Z,101868.95
2018-12-27T06:42:15.458Z,101883.23
2018-12-27T06:44:44.767Z,101884.95
2018-12-27T06:47:14.057Z,101885.83
2018-12-27T06:49:43.410Z,101878.08
2018-12-27T06:52:12.769Z,101873.34
2018-12-27T06:54:42.069Z,101873.34
2018-12-27T06:57:18.677Z,101876.80
2018-12-27T06:59:47.971Z,101876.80
2018-12-27T07:02:17.294Z,101872.91
2018-12-27T07:04:48.977Z,101872.91
2018-12-27T07:07:18.456Z,101864.22
2018-12-27T07:09:50.723Z,101873.75
2018-12-27T07:12:20.373Z,101871.91
2018-12-27T07:14:49.669Z,101877.16
2018-12-27T07:17:18.973Z,101877.16
2018-12-27T07:19:48.465Z,101877.16
2018-12-27T07:22:20.912Z,101877.19
2018-12-27T07:24:50.198Z,101882.31
2018-12-27T07:27:20.086Z,101879.66
2018-12-27T07:29:49.367Z,101865.86
2018-12-27T07:32:18.700Z,101882.25
2018-12-27T07:34:47.994Z,101883.16
2018-12-27T07:37:17.318Z,101876.64
2018-12-27T07:39:46.893Z,101879.62
2018-12-27T07:42:16.228Z,101879.62
2018-12-27T07:44:45.544Z,101880.92
2018-12-27T07:47:21.078Z,101880.92
2018-12-27T07:49:50.425Z,101885.30
2018-12-27T07:52:19.743Z,101885.30
2018-12-27T07:54:56.855Z,101890.05
2018-12-27T07:57:26.194Z,101890.05
2018-12-27T07:59:55.526Z,101890.47
2018-12-27T08:02:24.876Z,101880.98
2018-12-27T08:04:54.250Z,101880.98
2018-12-27T08:07:23.561Z,101888.75
2018-12-27T08:09:53.219Z,101889.21
2018-12-27T08:12:28.298Z,101881.77
2018-12-27T08:14:57.577Z,101892.64
2018-12-27T08:17:27.184Z,101896.05
2018-12-27T08:19:56.589Z,101896.05
2018-12-27T08:22:25.853Z,101887.46
2018-12-27T08:24:55.491Z,101884.87
2018-12-27T08:27:24.863Z,101884.87
2018-12-27T08:29:54.137Z,101889.62
2018-12-27T08:32:23.859Z,101889.62
2018-12-27T08:34:53.422Z,101880.11
2018-12-27T08:37:22.759Z,101890.56
2018-12-27T08:39:52.388Z,101890.56
2018-12-27T08:42:21.752Z,101882.78
2018-12-27T08:44:54.108Z,101882.78
2018-12-27T08:47:23.758Z,101891.91
2018-12-27T08:49:56.355Z,101889.32
2018-12-27T08:52:25.719Z,101889.32
2018-12-27T08:54:55.312Z,101891.91
2018-12-27T08:59:59.522Z,101891.94
2018-12-27T09:02:28.801Z,101888.09
2018-12-27T09:04:58.072Z,101888.09
2018-12-27T09:07:27.804Z,101896.79
2018-12-27T09:09:57.157Z,101890.73
2018-12-27T09:12:26.541Z,101890.73
2018-12-27T09:14:56.548Z,101885.09
2018-12-27T09:17:32.945Z,101890.30
2018-12-27T09:20:03.453Z,101886.86
2018-12-27T09:22:33.191Z,101882.50
2018-12-27T09:25:02.564Z,101885.52
2018-12-27T09:27:31.985Z,101886.42
2018-12-27T09:30:07.523Z,101886.81
2018-12-27T09:32:39.855Z,101886.43
2018-12-27T09:35:09.161Z,101888.13
2018-12-27T09:37:38.453Z,101888.15
2018-12-27T09:40:07.851Z,101889.89
2018-12-27T09:42:37.455Z,101889.89
2018-12-27T09:45:09.770Z,101882.97
2018-12-27T09:47:39.074Z,101885.15
2018-12-27T09:50:08.668Z,101886.02
2018-12-27T09:52:38.032Z,101885.59
2018-12-27T09:55:07.365Z,101883.45
2018-12-27T09:57:36.952Z,101875.20
2018-12-27T10:00:06.407Z,101875.20
2018-12-27T10:02:35.705Z,101873.02
2018-12-27T10:05:05.474Z,101870.02
2018-12-27T10:07:34.747Z,101867.00
2018-12-27T10:10:07.529Z,101865.27
2018-12-27T10:12:36.807Z,101867.44
2018-12-27T10:15:09.201Z,101855.30
2018-12-27T10:17:39.911Z,101856.17
2018-12-27T10:20:15.489Z,101864.80
2018-12-27T10:22:44.874Z,101864.80
2018-12-27T10:25:14.194Z,101868.68
2018-12-27T10:27:43.578Z,101869.09
2018-12-27T10:30:13.231Z,101872.53
2018-12-27T10:32:42.571Z,101866.52
2018-12-27T10:35:11.933Z,101861.80
2018-12-27T10:37:41.547Z,101859.19
2018-12-27T10:40:12.449Z,101859.64
2018-12-27T10:42:44.718Z,101861.38
2018-12-27T10:45:14.307Z,101852.73
2018-12-27T10:47:43.621Z,101846.25
2018-12-27T10:50:13.010Z,101847.55
2018-12-27T10:52:45.477Z,101847.55
2018-12-27T10:55:14.794Z,101829.83
2018-12-27T10:57:51.636Z,101829.83
2018-12-27T11:00:21.266Z,101822.05
2018-12-27T11:02:50.725Z,101814.70
2018-12-27T11:05:20.116Z,101814.70
2018-12-27T11:07:51.028Z,101812.11
2018-12-27T11:10:20.370Z,101809.09
2018-12-27T11:12:49.861Z,101804.78
2018-12-27T11:15:20.249Z,101802.58
2018-12-27T11:17:49.613Z,101798.72
2018-12-27T11:20:19.166Z,101794.38
2018-12-27T11:22:48.785Z,101799.14
2018-12-27T11:25:18.114Z,101791.79
2018-12-27T11:27:47.401Z,101790.48
2018-12-27T11:30:17.018Z,101786.59
2018-12-27T11:32:46.375Z,101768.45
2018-12-27T11:35:15.654Z,101768.45
2018-12-27T11:37:45.257Z,101776.21
2018-12-27T11:40:14.651Z,101776.64
2018-12-27T11:42:43.950Z,101766.29
2018-12-27T11:45:19.295Z,101762.80
2018-12-27T11:47:48.687Z,101761.94
2018-12-27T11:50:18.097Z,101759.34
2018-12-27T11:52:47.467Z,101755.00
2018-12-27T11:55:16.797Z,101757.17
2018-12-27T11:57:46.403Z,101750.24
2018-12-27T12:00:15.684Z,101746.79
2018-12-27T12:02:45.041Z,101741.17
2018-12-27T12:05:20.461Z,101738.56
2018-12-27T12:07:49.857Z,101735.09
2018-12-27T12:10:19.212Z,101729.05
2018-12-27T12:12:48.825Z,101726.90
2018-12-27T12:15:18.185Z,101734.22
2018-12-27T12:17:52.672Z,101736.81
2018-12-27T12:20:22.000Z,101733.33
2018-12-27T12:22:57.418Z,101726.39
2018-12-27T12:25:27.247Z,101725.09
2018-12-27T12:27:56.548Z,101725.52
2018-12-27T12:30:25.865Z,101722.45
2018-12-27T12:32:55.554Z,101723.76
2018-12-27T12:35:24.916Z,101718.13
2018-12-27T12:37:54.209Z,101721.62
2018-12-27T12:40:26.704Z,101714.72
2018-12-27T12:42:56.117Z,101711.69
2018-12-27T12:45:25.549Z,101707.39
2018-12-27T12:47:55.168Z,101708.73
2018-12-27T12:50:30.466Z,101700.89
2018-12-27T12:52:59.866Z,101702.19
2018-12-27T12:55:29.590Z,101697.38
2018-12-27T12:58:08.163Z,101698.73
2018-12-27T13:00:37.852Z,101701.77
2018-12-27T13:03:07.610Z,101705.28
2018-12-27T13:05:40.216Z,101696.59
2018-12-27T13:08:09.708Z,101700.48
2018-12-27T13:10:47.231Z,101701.80
2018-12-27T13:13:16.828Z,101701.80
2018-12-27T13:16:48.970Z,101702.71
2018-12-27T13:19:18.974Z,101704.87
2018-12-27T13:21:49.112Z,101700.52
2018-12-27T13:24:19.006Z,101699.22
2018-12-27T13:26:48.855Z,101700.94
2018-12-27T13:29:19.055Z,101700.94
2018-12-27T13:31:48.422Z,101698.30
2018-12-27T13:34:24.205Z,101698.71
2018-12-27T13:36:57.065Z,101691.34
2018-12-27T13:39:26.514Z,101695.30
2018-12-27T13:42:07.854Z,101693.91
2018-12-27T13:44:28.210Z,101688.31
2018-12-27T13:46:57.712Z,101693.55
2018-12-27T13:49:27.490Z,101680.59
2018-12-27T13:51:56.827Z,101679.72
2018-12-27T13:54:26.762Z,101682.73
2018-12-27T13:56:57.728Z,101677.59
2018-12-27T13:59:27.311Z,101682.35
2018-12-27T14:01:56.836Z,101683.22
2018-12-27T14:04:35.388Z,101688.41
2018-12-27T14:07:04.841Z,101687.13
2018-12-27T14:09:34.315Z,101682.80
2018-12-27T14:12:05.004Z,101678.03
2018-12-27T14:14:34.311Z,101676.72
2018-12-27T14:17:03.748Z,101674.57
2018-12-27T14:19:33.482Z,101676.28
2018-12-27T14:22:05.829Z,101667.20
2018-12-27T14:24:35.366Z,101665.92
2018-12-27T14:27:05.201Z,101664.63
2018-12-27T14:29:34.566Z,101674.58
2018-12-27T14:32:07.062Z,101672.84
2018-12-27T14:34:37.310Z,101669.39
2018-12-27T14:37:06.804Z,101675.85
2018-12-27T14:39:36.223Z,101674.13
2018-12-27T14:42:09.126Z,101668.94
2018-12-27T14:44:41.760Z,101669.83
2018-12-27T14:47:11.208Z,101673.30
2018-12-27T14:49:41.510Z,101665.50
2018-12-27T14:52:11.817Z,101667.66
2018-12-27T14:54:41.380Z,101675.03
2018-12-27T14:57:11.094Z,101678.50
2018-12-27T14:59:40.424Z,101678.95
2018-12-27T15:02:09.821Z,101681.11
2018-12-27T15:04:39.458Z,101684.58
2018-12-27T15:07:09.023Z,101684.58
2018-12-27T15:09:38.637Z,101693.20
2018-12-27T15:12:08.642Z,101677.65
2018-12-27T15:14:38.221Z,101683.27
2018-12-27T15:17:13.702Z,101686.28
2018-12-27T15:19:43.516Z,101686.28
2018-12-27T15:22:16.210Z,101683.27
2018-12-27T15:24:45.882Z,101687.17
2018-12-27T15:27:15.790Z,101685.88
2018-12-27T15:29:45.269Z,101681.09
2018-12-27T15:32:16.085Z,101681.98
2018-12-27T15:34:45.801Z,101683.27
2018-12-27T15:37:15.400Z,101683.27
2018-12-27T15:39:45.054Z,101669.02
2018-12-27T15:42:15.062Z,101687.58
2018-12-27T15:44:44.697Z,101685.84
2018-12-27T15:47:14.359Z,101689.75
2018-12-27T15:49:44.123Z,101678.50
2018-12-27T15:52:13.532Z,101678.50
2018-12-27T15:54:43.054Z,101684.98
2018-12-27T15:57:13.114Z,101679.38
2018-12-27T15:59:42.728Z,101677.58
2018-12-27T16:02:13.950Z,101677.58
2018-12-27T16:04:51.310Z,101686.22
2018-12-27T16:07:21.221Z,101689.72
2018-12-27T16:09:51.124Z,101685.86
2018-12-27T16:12:20.916Z,101685.86
2018-12-27T16:14:50.354Z,101680.23
2018-12-27T16:17:30.499Z,101689.73
2018-12-27T16:19:59.876Z,101690.17
2018-12-27T16:22:29.237Z,101686.27
2018-12-27T16:58:32.931Z,101684.11
2018-12-27T17:01:02.960Z,101684.11
2018-12-27T17:03:32.686Z,101679.75
2018-12-27T17:06:10.087Z,101684.97
2018-12-27T17:08:35.152Z,101684.97
2018-12-27T17:11:04.944Z,101688.01
2018-12-27T17:13:34.458Z,101691.86
2018-12-27T17:16:05.505Z,101688.36
2018-12-27T17:18:34.973Z,101688.36
2018-12-27T17:21:04.933Z,101688.41
2018-12-27T17:23:34.568Z,101700.95
2018-12-27T17:26:08.123Z,101700.95
2018-12-27T17:28:37.535Z,101696.20
2018-12-27T17:31:07.735Z,101693.19
2018-12-27T17:33:43.645Z,101693.19
2018-12-27T17:36:13.338Z,101695.30
2018-12-27T17:38:43.358Z,101689.25
2018-12-27T17:41:21.321Z,101694.91
2018-12-27T17:43:51.282Z,101694.91
2018-12-27T17:46:21.357Z,101704.82
2018-12-27T17:48:51.028Z,101704.82
2018-12-27T17:51:23.600Z,101700.90
2018-12-27T17:53:53.196Z,101698.72
2018-12-27T17:56:31.972Z,101706.93
2018-12-27T17:59:01.733Z,101706.93
2018-12-27T18:01:37.099Z,101701.77
2018-12-27T18:04:11.171Z,101699.62
2018-12-27T18:06:40.880Z,101707.84
2018-12-27T18:09:13.584Z,101707.84
2018-12-27T18:11:45.783Z,101712.99
2018-12-27T18:14:23.055Z,101707.82
2018-12-27T18:16:53.897Z,101706.50
2018-12-27T18:19:23.815Z,101694.41
2018-12-27T18:22:00.771Z,101694.41
2018-12-27T18:24:30.488Z,101707.39
2018-12-27T18:27:08.831Z,101717.75
2018-12-27T18:29:38.734Z,101699.59
2018-12-27T18:32:08.930Z,101704.79
2018-12-27T18:34:39.130Z,101695.73
2018-12-27T18:37:08.841Z,101711.30
2018-12-27T18:39:41.745Z,101727.69
2018-12-27T18:42:11.925Z,101714.28
2018-12-27T18:44:41.747Z,101705.61
2018-12-27T18:47:11.494Z,101700.41
2018-12-27T18:49:41.731Z,101716.00
2018-12-27T18:52:11.502Z,101720.27
2018-12-27T18:54:44.287Z,101720.27
2018-12-27T18:57:14.587Z,101719.81
2018-12-27T18:59:44.421Z,101718.11
2018-12-27T19:02:14.202Z,101718.11
2018-12-27T19:04:44.511Z,101725.06
2018-12-27T19:07:14.251Z,101726.84
2018-12-27T19:09:44.009Z,101726.84
2018-12-27T19:12:49.342Z,101722.02
2018-12-27T19:15:22.329Z,101710.33
2018-12-27T19:18:04.116Z,101710.33
2018-12-27T19:20:34.756Z,101712.87
2018-12-27T19:23:25.871Z,101712.87
2018-12-27T19:25:46.375Z,101721.08
2018-12-27T19:28:18.080Z,101734.08
2018-12-27T19:30:48.062Z,101734.08
2018-12-27T19:33:17.844Z,101731.53
2018-12-27T19:35:47.600Z,101729.31
2018-12-27T19:38:17.798Z,101730.23
2018-12-27T19:40:47.663Z,101728.05
2018-12-27T19:43:17.549Z,101743.16
2018-12-27T19:45:47.771Z,101734.55
2018-12-27T19:48:17.522Z,101738.45
2018-12-27T19:50:47.356Z,101732.41
2018-12-27T19:53:17.489Z,101732.41
2018-12-27T19:55:47.339Z,101734.16
2018-12-27T19:58:17.078Z,101720.73
2018-12-27T20:00:46.908Z,101720.73
2018-12-27T20:03:16.819Z,101728.11
2018-12-27T20:05:47.062Z,101728.11
2018-12-27T20:08:37.996Z,101721.63
2018-12-27T20:11:10.956Z,101703.50
2018-12-27T20:13:40.945Z,101703.50
2018-12-27T20:16:10.975Z,101713.81
2018-12-27T20:18:42.740Z,101725.03
2018-12-27T20:21:12.589Z,101725.03
2018-12-27T20:23:42.327Z,101728.08
2018-12-27T20:26:12.458Z,101723.33
2018-12-27T20:28:42.457Z,101723.33
2018-12-27T20:31:12.434Z,101721.17
2018-12-27T20:33:42.651Z,101725.52
2018-12-27T20:36:14.116Z,101725.52
2018-12-27T20:38:46.621Z,101711.22
2018-12-27T20:41:17.722Z,101727.63
2018-12-27T20:43:47.533Z,101728.87
2018-12-27T20:46:17.381Z,101740.50
2018-12-27T20:48:47.424Z,101732.71
2018-12-27T20:51:28.780Z,101732.71
2018-12-27T20:53:58.855Z,101732.29
2018-12-27T20:56:31.293Z,101736.17
2018-12-27T20:59:01.135Z,101737.52
2018-12-27T21:01:30.940Z,101737.52
2018-12-27T21:04:03.359Z,101734.91
2018-12-27T21:06:33.744Z,101740.53
2018-12-27T21:09:05.350Z,101733.60
2018-12-27T21:11:37.058Z,101733.60
2018-12-27T21:14:16.158Z,101748.72
2018-12-27T21:16:49.494Z,101748.72
2018-12-27T21:19:19.451Z,101742.22
2018-12-27T21:21:50.476Z,101742.22
2018-12-27T21:26:50.855Z,101743.14
2018-12-27T21:29:20.771Z,101749.06
2018-12-27T21:31:50.812Z,101750.38
2018-12-27T21:34:20.633Z,101748.22
2018-12-27T21:36:50.422Z,101741.80
2018-12-27T21:39:20.513Z,101746.08
2018-12-27T21:41:50.285Z,101746.08
2018-12-27T21:44:23.050Z,101743.76
2018-12-27T21:46:53.967Z,101733.44
2018-12-27T21:49:23.721Z,101733.44
2018-12-27T21:51:56.603Z,101730.01
2018-12-27T21:54:26.591Z,101721.40
2018-12-27T21:56:56.362Z,101727.88
2018-12-27T21:59:26.372Z,101727.88
2018-12-27T22:01:56.291Z,101726.61
2018-12-27T22:04:26.127Z,101729.19
2018-12-27T22:06:56.370Z,101716.73
2018-12-27T22:09:26.280Z,101711.55
2018-12-27T22:11:58.995Z,101708.54
2018-12-27T22:14:32.270Z,101701.62
2018-12-27T22:17:02.236Z,101701.62
2018-12-27T22:19:38.245Z,101694.67
2018-12-27T22:22:11.305Z,101694.67
2018-12-27T22:24:41.643Z,101696.36
2018-12-27T22:27:11.612Z,101708.53
2018-12-27T22:29:41.884Z,101687.35
2018-12-27T22:32:15.116Z,101702.05
2018-12-27T22:34:48.841Z,101702.05
2018-12-27T22:37:19.393Z,101706.74
2018-12-27T22:39:58.109Z,101706.39
2018-12-27T22:42:28.180Z,101706.39
2018-12-27T22:44:57.813Z,101702.02
2018-12-27T22:47:27.424Z,101694.70
2018-12-27T22:49:57.250Z,101692.53
2018-12-27T22:52:26.812Z,101702.52
2018-12-27T22:54:56.448Z,101704.26
2018-12-27T22:57:30.176Z,101699.84
2018-12-27T22:59:59.922Z,101699.00
2018-12-27T23:02:34.970Z,101686.51
2018-12-27T23:05:07.718Z,101686.51
2018-12-27T23:07:37.400Z,101687.83
2018-12-27T23:10:07.510Z,101684.72
2018-12-27T23:12:37.279Z,101689.00
2018-12-27T23:15:07.175Z,101695.46
2018-12-27T23:17:39.443Z,101696.70
2018-12-27T23:20:09.371Z,101696.70
2018-12-27T23:22:38.910Z,101687.13
2018-12-27T23:25:09.043Z,101687.13
2018-12-27T23:27:41.619Z,101684.50
2018-12-27T23:30:11.186Z,101678.95
2018-12-27T23:32:42.443Z,101693.09
2018-12-27T23:35:12.569Z,101689.67
2018-12-27T23:37:45.663Z,101684.57
2018-12-27T23:40:15.281Z,101684.57
2018-12-27T23:42:44.585Z,101692.30
2018-12-27T23:45:14.037Z,101688.97
2018-12-27T23:47:43.785Z,101690.71
2018-12-27T23:50:16.420Z,101690.71
2018-12-27T23:52:45.783Z,101689.67
2018-12-27T23:55:16.019Z,101689.67
2018-12-27T23:57:48.824Z,101690.63
